Padstow, United Kingdom
Current Conditions -  °F | °C
As of 8:50 PM on Wednesday 17 Dec 2014 (Local Time) from EGHQ Reporting Station
Drizzle Drizzle  
Wind Chill: 52°   Ceiling: 200
Heat Index: 52°   Visibility: 0.68mi
Dew Point: 52°   Wind: 26mph
Humidity: 100%   Direction: 250°WSW
Pressure: 29.94"   Gusts: NA
Location:  50.54°N, 4.94°W
Report Text: EGHQ 172050Z 25023KT 1100 R30/0700 -DZ BR BKN002 OVC006 11/11 Q1014
Loading
Personal Weather Stations






























Interactive Weather Map New forecast layout! Learn more

10-Day Weather Forecast

Advertisements
Track Severe Weather on mobile